New Harbor, ME (Heathkit)

43° 52' 34"N, 69° 29' 40"W, Elevation 65 ft.
Eastern Time

Hourly observations for the last 72 hours

Date Time Temperature (°F) Humi-
dity

(%)
Wind
(mph)
Pressure Rain (in)
Air Dew 6 Hour 1 Hr 3 Hr 6 Hr Day
Alt
(in)
Sea
Level

(mb)
Max Min
8 20:00 65 -38 74 61 0 S 2 G 4 29.73 1006.8 0.05 0.92 0.92 0.92
8 19:00 65 -38 0 SSE 1 G 6 29.79 1008.8 0.87 0.86
8 18:00 69 -36 0 S 4 G 10 29.72 1006.5 0.00
8 17:00 70 -35 0 S 3 G 9 29.75 1007.5 0.00
8 16:00 72 -34 0 S 3 G 10 29.76 1007.8 0.00
8 15:00 71 -35 0 S 3 G 12 29.78 1008.5 0.00
8 14:00 69 -36 70 62 0 S 3 G 12 29.80 1009.2 0.00
8 13:00 68 -36 0 SSW 3 G 9 29.83 1010.2 0.00
8 12:00 68 -36 0 S 3 G 9 29.85 1010.9 0.00
8 11:00 68 -36 0 S 6 G 14 29.87 1011.5 0.00
8 10:00 68 -36 0 S 4 G 10 29.87 1011.5 0.00
8 09:00 67 -37 0 S 5 G 14 29.89 1012.2 0.00
8 08:00 65 -38 65 55 0 S 6 G 15 29.90 1012.6 0.00
8 07:00 65 -38 0 S 6 G 14 29.90 1012.6 0.00
8 06:00 63 -39 0 S 5 G 16 29.90 1012.6 0.00
8 05:00 63 -39 0 S 2 G 7 29.91 1012.9 0.00
8 04:00 63 -39 0 S 2 G 9 29.91 1012.9 0.00
8 03:00 63 -39 0 S 4 G 12 29.91 1012.9 0.00
8 02:00 63 -39 63 55 0 S 4 G 14 29.94 1013.9 0.00
8 01:00 63 -39 0 S 5 G 13 29.95 1014.3 0.00
8 00:00 62 -40 0 S 4 G 13 29.96 1014.6 0.00
7 23:00 61 -41 0 S 2 G 9 29.97 1014.9 0.00
7 22:00 62 -40 0 SE 1 G 4 29.98 1015.3 0.00
7 21:00 62 -40 0 S 3 G 14 29.98 1015.3 0.00
7 20:00 63 -39 73 59 0 S 4 G 10 29.98 1015.3 0.00
7 19:00 65 -38 0 SSE 4 G 9 30.00 1016.0 0.00
7 18:00 67 -37 0 S 7 G 17 30.01 1016.3 0.00
7 17:00 68 -36 0 S 5 G 17 30.02 1016.6 0.00
7 16:00 69 -36 0 SSE 6 G 17 30.03 1017.0 0.00
7 15:00 71 -35 0 SSE 5 G 12 30.03 1017.0 0.00
7 14:00 73 -33 74 59 0 S 8 G 14 30.04 1017.3 0.00
7 13:00 73 -33 0 S 5 G 12 30.05 1017.6 0.00
7 12:00 72 -34 0 S 5 G 13 30.05 1017.6 0.00
7 11:00 71 -35 0 S 7 G 15 30.05 1017.6 0.00
7 10:00 69 -36 0 SSE 5 G 10 30.05 1017.6 0.00
7 09:00 65 -38 0 SSE 2 G 6 30.06 1018.0 0.00
7 08:00 60 -41 60 51 0 E 1 G 2 30.06 1018.0 0.00
7 07:00 59 -42 0 SE 1 G 2 30.06 1018.0 0.00
7 06:00 56 -44 0 SE 0 G 1 30.05 1017.6 0.00
7 05:00 57 -43 0 ESE 1 G 1 30.03 1017.0 0.00
7 04:00 57 -43 0 S 0 G 1 30.04 1017.3 0.00
7 03:00 57 -43 0 SE 0 G 1 30.03 1017.0 0.00
7 02:00 57 -43 63 51 0 S 0 G 1 30.03 1017.0 0.00
7 01:00 57 -43 0 SSE 0 G 1 30.03 1017.0 0.00
7 00:00 58 -42 0 E 0 G 2 30.03 1017.0 0.01
6 23:00 57 -43 0 WSW 0 G 1 30.02 1016.6 0.01
6 22:00 58 -42 0 E 0 G 1 30.02 1016.6 0.01
6 21:00 60 -41 0 WSW 1 G 1 30.01 1016.3 0.01
6 20:00 63 -39 70 59 0 S 1 G 2 29.99 1015.6 0.01
6 19:00 64 -39 0 SSE 2 G 5 30.00 1016.0 0.01
6 18:00 67 -37 0 S 2 G 4 29.97 1014.9 0.01
6 17:00 69 -36 0 S 4 G 10 29.97 1014.9 0.01
6 16:00 69 -36 0 S 3 G 10 29.97 1014.9 0.01
6 15:00 69 -36 0 SE 3 G 9 29.98 1015.3 0.01
6 14:00 70 -35 70 57 0 SE 2 G 6 29.97 1014.9 0.01 0.01
6 13:00 69 -36 0 ESE 2 G 7 29.97 1014.9 0.01
6 12:00 70 -35 0 S 2 G 6 29.97 1014.9 0.01
6 11:00 69 -36 0 ESE 2 G 6 29.97 1014.9 0.01 0.01
6 10:00 66 -38 0 ESE 6 G 14 29.95 1014.3 0.01
6 09:00 64 -39 0 E 4 G 8 29.95 1014.3 0.01 0.01
6 08:00 60 -41 60 52 0 E 2 G 4 29.93 1013.6 0.00
6 07:00 59 -42 0 E 1 G 3 29.92 1013.2 0.00
6 06:00 58 -42 0 E 1 G 2 29.89 1012.2 0.00
6 05:00 57 -43 0 SE 2 G 3 29.88 1011.9 0.00
6 04:00 57 -43 0 ESE 1 G 1 29.85 1010.9 0.00
6 03:00 56 -44 0 E 2 G 7 29.86 1011.2 0.00
6 02:00 57 -43 58 50 0 ESE 2 G 6 29.86 1011.2 0.00
6 01:00 57 -43 0 ESE 4 G 7 29.86 1011.2 0.00
6 00:00 57 -43 0 SSE 1 G 4 29.86 1011.2 0.21
5 23:00 57 -43 0 SSE 1 G 2 29.86 1011.2 0.21
5 22:00 57 -43 0 E 4 G 9 29.86 1011.2 0.21
5 21:00 57 -43 0 E 2 G 9 29.85 1010.9 0.21

Data generated by WxSolution Version 1.9.1.8, Build 2020.02.16.